Overview Statistics Trail Chart Weather Telemetry Raw packets
 

This is the latest recevied weather packets stored in our database for station/object KSL2-WX. If no packets are shown the sender has not sent any weather packets the latest 10 day(s).

<< 6 7 8 9 10 >>
Time Temp. Humidity Pressure Rain* Wind** Luminosity Snow
1787962639 16.67° C 61% 1015.4 hPa - - - -
1787959039 16.67° C 63% 1015 hPa - - - -
1787955439 17.22° C 64% 1015.3 hPa - - - -
1787951839 16.67° C 75% 1015.3 hPa - - - -
1787948240 17.78° C 66% 1015.8 hPa - - - -
1787944639 17.78° C 69% 1015.7 hPa - - - -
1787941042 17.78° C 69% 1015.7 hPa - - - -
1787937440 18.33° C 69% 1015.5 hPa - - - -
1787933839 18.33° C 71% 1015.3 hPa - - - -
1787930239 18.33° C 67% 1015 hPa - - - -
1787926639 19.44° C 62% 1014.8 hPa - - - -
1787923039 20° C 60% 1014.6 hPa - - - -
1787919439 20.56° C 60% 1014.6 hPa - - - -
1787915839 20° C 66% 1014.2 hPa - - - -
1787912240 20.56° C 64% 1014.2 hPa - - - -
1787908639 20.56° C 63% 1013.6 hPa - - - -
1787905039 20.56° C 66% 1013.7 hPa - - - -
1787901445 20° C 68% 1013.9 hPa - - - -
1787897839 20° C 66% 1014.2 hPa - - - -
1787894239 19.44° C 71% 1014.3 hPa - - - -
1787890640 16.67° C 86% 1014.7 hPa - - - -
1787887039 13.89° C 95% 1014.7 hPa - - - -
1787883439 13.89° C 96% 1014.6 hPa - - - -
1787879841 14.44° C 94% 1014.5 hPa - - - -
1787876239 15° C 92% 1014.5 hPa - - - -

* Rain since midnight (hover to see other rain measurements)
** Current wind speed in m/s (hover to see current wind gust speed)